createdAt,value
2023-02-22T05:16:27.358Z,100273.94
2023-02-22T05:19:30.812Z,100280.84
2023-02-22T05:22:33.378Z,100279.12
2023-02-22T05:25:36.194Z,100294.41
2023-02-22T05:28:39.081Z,100292.94
2023-02-22T05:31:43.758Z,100300.84
2023-02-22T05:34:46.482Z,100297.41
2023-02-22T05:37:50.846Z,100303.69
2023-02-22T05:40:55.067Z,100303.72
2023-02-22T05:43:58.647Z,100309.00
2023-02-22T05:47:01.257Z,100309.88
2023-02-22T05:50:04.837Z,100319.50
2023-02-22T05:53:07.731Z,100331.84
2023-02-22T05:56:11.226Z,100334.56
2023-02-22T05:59:14.036Z,100340.75
2023-02-22T06:02:17.055Z,100349.41
2023-02-22T06:05:20.217Z,100349.34
2023-02-22T06:08:23.004Z,100356.91
2023-02-22T06:11:26.106Z,100358.31
2023-02-22T06:14:28.804Z,100354.16
2023-02-22T06:17:31.719Z,100356.34
2023-02-22T06:20:35.580Z,100354.59
2023-02-22T06:23:38.709Z,100362.34
2023-02-22T06:26:41.257Z,100361.28
2023-02-22T06:29:47.488Z,100369.75
2023-02-22T06:32:50.353Z,100369.72
2023-02-22T06:35:53.255Z,100372.78
2023-02-22T06:38:58.901Z,100379.09
2023-02-22T06:42:02.094Z,100368.31
2023-02-22T06:45:04.970Z,100368.25
2023-02-22T06:48:09.201Z,100375.06
2023-02-22T06:51:12.284Z,100371.88
2023-02-22T06:54:15.275Z,100374.69
2023-02-22T06:57:18.467Z,100373.56
2023-02-22T07:00:25.144Z,100374.66
2023-02-22T07:03:28.138Z,100370.69
2023-02-22T07:06:31.105Z,100373.75
2023-02-22T07:09:33.847Z,100380.16
2023-02-22T07:12:36.919Z,100385.03
2023-02-22T07:15:39.536Z,100376.56
2023-02-22T07:18:42.581Z,100379.13
2023-02-22T07:21:47.977Z,100382.84
2023-02-22T07:24:55.799Z,100377.66
2023-02-22T07:27:59.610Z,100370.88
2023-02-22T07:31:02.696Z,100379.56
2023-02-22T07:34:05.329Z,100382.13
2023-02-22T07:37:08.365Z,100375.69
2023-02-22T07:40:11.933Z,100377.50
2023-02-22T07:43:26.270Z,100381.25
2023-02-22T07:46:29.872Z,100376.37
2023-02-22T07:49:32.863Z,100387.56
2023-02-22T07:52:35.515Z,100383.03
2023-02-22T07:55:38.549Z,100379.50
2023-02-22T07:58:41.210Z,100384.38
2023-02-22T08:01:44.573Z,100381.09
2023-02-22T08:04:56.360Z,100385.53
2023-02-22T08:07:59.024Z,100385.75
2023-02-22T08:11:02.501Z,100385.47
2023-02-22T08:14:05.147Z,100383.25
2023-02-22T08:17:08.980Z,100383.69
2023-02-22T08:20:11.972Z,100391.53
2023-02-22T08:23:16.235Z,100388.34
2023-02-22T08:26:20.809Z,100398.28
2023-02-22T08:29:23.803Z,100385.91
2023-02-22T08:32:26.538Z,100388.69
2023-02-22T08:35:31.753Z,100392.25
2023-02-22T08:38:34.839Z,100379.84
2023-02-22T08:41:37.679Z,100391.44
2023-02-22T08:44:40.655Z,100387.13
2023-02-22T08:47:44.036Z,100381.75
2023-02-22T08:50:47.037Z,100378.78
2023-02-22T08:53:50.225Z,100380.56
2023-02-22T08:56:52.893Z,100390.22
2023-02-22T08:59:55.806Z,100385.87
2023-02-22T09:03:02.789Z,100388.88
2023-02-22T09:06:08.081Z,100385.34
2023-02-22T09:09:10.720Z,100380.41
2023-02-22T09:12:14.201Z,100382.25
2023-02-22T09:15:16.789Z,100395.41
2023-02-22T09:18:21.155Z,100388.06
2023-02-22T09:21:24.043Z,100384.84
2023-02-22T09:24:27.829Z,100382.09
2023-02-22T09:27:30.425Z,100382.81
2023-02-22T09:30:35.129Z,100383.69
2023-02-22T09:33:37.722Z,100381.62
2023-02-22T09:36:46.152Z,100385.41
2023-02-22T09:39:49.156Z,100379.37
2023-02-22T09:43:02.470Z,100374.38
2023-02-22T09:46:33.540Z,100377.03
2023-02-22T09:49:47.335Z,100376.13
2023-02-22T09:53:04.496Z,100371.50
2023-02-22T09:56:11.048Z,100370.88
2023-02-22T09:59:20.998Z,100376.50
2023-02-22T10:02:34.720Z,100371.03
2023-02-22T10:05:41.928Z,100371.69
2023-02-22T10:08:45.473Z,100378.34
2023-02-22T10:12:11.101Z,100367.72
2023-02-22T10:15:53.316Z,100376.03
2023-02-22T10:19:22.550Z,100371.03
2023-02-22T10:22:43.482Z,100371.75
2023-02-22T10:25:57.382Z,100361.94
2023-02-22T10:29:18.493Z,100360.16
2023-02-22T10:32:31.524Z,100359.34
2023-02-22T10:35:37.158Z,100358.25
2023-02-22T10:38:43.729Z,100347.75
2023-02-22T10:41:53.093Z,100350.44
2023-02-22T10:44:56.382Z,100348.28
2023-02-22T10:48:08.454Z,100349.03
2023-02-22T10:51:11.942Z,100342.84
2023-02-22T10:54:14.658Z,100345.19
2023-02-22T10:57:26.139Z,100346.94
2023-02-22T11:00:37.392Z,100343.69
2023-02-22T11:03:42.509Z,100333.66
2023-02-22T11:06:48.250Z,100338.13
2023-02-22T11:09:57.064Z,100328.22
2023-02-22T11:13:16.205Z,100333.44
2023-02-22T11:16:28.130Z,100330.03
2023-02-22T11:19:38.753Z,100322.72
2023-02-22T11:22:43.279Z,100318.63
2023-02-22T11:26:01.786Z,100322.31
2023-02-22T11:29:18.521Z,100311.91
2023-02-22T11:32:22.537Z,100318.19
2023-02-22T11:35:28.515Z,100317.81
2023-02-22T11:38:33.861Z,100319.59
2023-02-22T11:41:37.238Z,100316.31
2023-02-22T11:44:43.939Z,100317.22
2023-02-22T11:47:56.315Z,100314.31
2023-02-22T11:51:17.731Z,100313.16
2023-02-22T11:54:29.062Z,100305.16
2023-02-22T11:57:57.728Z,100311.16
2023-02-22T12:01:31.366Z,100307.09
2023-02-22T12:04:37.068Z,100304.72
2023-02-22T12:07:50.559Z,100303.47
2023-02-22T12:11:00.659Z,100309.94
2023-02-22T12:14:24.107Z,100305.00
2023-02-22T12:18:00.077Z,100303.91
2023-02-22T12:21:09.250Z,100297.00
2023-02-22T12:24:21.530Z,100297.47
2023-02-22T12:27:33.891Z,100292.34
2023-02-22T12:30:44.361Z,100292.72
2023-02-22T12:34:01.125Z,100294.53
2023-02-22T12:37:21.261Z,100291.19
2023-02-22T12:40:35.503Z,100289.38
2023-02-22T12:44:06.566Z,100281.84
2023-02-22T12:47:17.656Z,100280.38
2023-02-22T12:50:23.507Z,100278.75
2023-02-22T12:53:34.291Z,100273.59
2023-02-22T12:56:55.638Z,100266.00
2023-02-22T13:00:17.057Z,100270.00
2023-02-22T13:03:41.007Z,100270.28
2023-02-22T13:06:53.977Z,100261.03
2023-02-22T13:10:26.397Z,100269.03
2023-02-22T13:13:47.255Z,100260.97
2023-02-22T13:17:01.245Z,100261.41
2023-02-22T13:20:19.643Z,100260.87
2023-02-22T13:23:32.283Z,100263.59
2023-02-22T13:26:57.114Z,100269.31
2023-02-22T13:30:01.769Z,100255.13
2023-02-22T13:33:24.389Z,100256.31
2023-02-22T13:36:37.738Z,100262.94
2023-02-22T13:39:54.729Z,100257.75
2023-02-22T13:43:19.605Z,100249.19
2023-02-22T13:46:37.528Z,100258.66
2023-02-22T13:49:56.530Z,100255.44
2023-02-22T13:53:03.316Z,100257.13
2023-02-22T13:56:07.124Z,100253.50
2023-02-22T13:59:25.069Z,100257.56
2023-02-22T14:02:52.610Z,100263.53
2023-02-22T14:05:57.651Z,100255.66
2023-02-22T14:09:01.445Z,100259.84
2023-02-22T14:12:04.765Z,100261.19
2023-02-22T14:15:18.786Z,100252.19
2023-02-22T14:18:36.158Z,100250.22
2023-02-22T14:22:02.151Z,100251.16
2023-02-22T14:25:05.657Z,100248.59
2023-02-22T14:28:31.452Z,100253.34
2023-02-22T14:31:46.570Z,100249.16
2023-02-22T14:35:05.145Z,100250.56
2023-02-22T14:38:20.945Z,100250.63
2023-02-22T14:41:28.112Z,100249.88
2023-02-22T14:44:51.484Z,100255.59
2023-02-22T14:48:04.195Z,100246.53
2023-02-22T14:51:29.754Z,100244.69
2023-02-22T14:54:51.701Z,100251.03
2023-02-22T14:58:12.548Z,100248.66
2023-02-22T15:01:20.224Z,100247.72
2023-02-22T15:04:31.064Z,100247.72
2023-02-22T15:07:35.843Z,100246.72
2023-02-22T15:10:51.600Z,100250.56
2023-02-22T15:13:55.107Z,100257.37
2023-02-22T15:17:01.653Z,100244.34
2023-02-22T15:20:10.151Z,100247.22
2023-02-22T15:23:16.827Z,100246.81
2023-02-22T15:26:25.604Z,100247.63
2023-02-22T15:29:45.029Z,100240.84
2023-02-22T15:33:03.221Z,100236.34
2023-02-22T15:36:15.783Z,100241.22
2023-02-22T15:39:20.624Z,100246.06
2023-02-22T15:42:23.666Z,100238.84
2023-02-22T15:45:27.122Z,100236.19
2023-02-22T15:48:31.717Z,100238.78
2023-02-22T15:51:37.297Z,100235.53
2023-02-22T15:54:44.725Z,100236.97
2023-02-22T15:57:48.149Z,100236.56
2023-02-22T16:01:02.307Z,100233.63
2023-02-22T16:04:05.940Z,100237.31
2023-02-22T16:07:21.312Z,100235.84
2023-02-22T16:10:29.639Z,100235.56
2023-02-22T16:13:36.392Z,100231.09
2023-02-22T16:16:43.409Z,100230.25
2023-02-22T16:19:46.135Z,100240.37
